sensor_id;sensor_type;location;lat;lon;timestamp;P1;durP1;ratioP1;P2;durP2;ratioP2
23898;SDS011;20544;50.018;20.010;2022-10-15T00:00:47;25.93;;;21.35;;
23898;SDS011;20544;50.018;20.010;2022-10-15T00:04:05;23.83;;;20.50;;
23898;SDS011;20544;50.018;20.010;2022-10-15T00:07:21;23.23;;;19.43;;
23898;SDS011;20544;50.018;20.010;2022-10-15T00:10:39;24.50;;;20.68;;
23898;SDS011;20544;50.018;20.010;2022-10-15T00:13:57;29.03;;;21.00;;
23898;SDS011;20544;50.018;20.010;2022-10-15T00:17:14;24.25;;;20.50;;
23898;SDS011;20544;50.018;20.010;2022-10-15T00:20:31;25.33;;;20.40;;
23898;SDS011;20544;50.018;20.010;2022-10-15T00:23:47;26.80;;;20.43;;
23898;SDS011;20544;50.018;20.010;2022-10-15T00:27:03;24.95;;;20.98;;
23898;SDS011;20544;50.018;20.010;2022-10-15T00:30:20;26.58;;;21.00;;
23898;SDS011;20544;50.018;20.010;2022-10-15T00:33:36;23.93;;;20.48;;
23898;SDS011;20544;50.018;20.010;2022-10-15T00:36:54;25.10;;;20.60;;
23898;SDS011;20544;50.018;20.010;2022-10-15T00:40:11;24.33;;;20.13;;
23898;SDS011;20544;50.018;20.010;2022-10-15T00:43:35;22.73;;;19.70;;
23898;SDS011;20544;50.018;20.010;2022-10-15T00:46:55;23.35;;;19.20;;
23898;SDS011;20544;50.018;20.010;2022-10-15T00:50:16;22.88;;;19.70;;
23898;SDS011;20544;50.018;20.010;2022-10-15T00:53:35;24.18;;;20.10;;
23898;SDS011;20544;50.018;20.010;2022-10-15T00:56:52;24.95;;;19.13;;
23898;SDS011;20544;50.018;20.010;2022-10-15T01:00:11;27.23;;;21.85;;
23898;SDS011;20544;50.018;20.010;2022-10-15T01:03:30;23.93;;;21.25;;
23898;SDS011;20544;50.018;20.010;2022-10-15T01:06:46;28.05;;;23.02;;
23898;SDS011;20544;50.018;20.010;2022-10-15T01:10:02;27.00;;;22.90;;
23898;SDS011;20544;50.018;20.010;2022-10-15T01:13:26;27.45;;;24.00;;
23898;SDS011;20544;50.018;20.010;2022-10-15T01:16:48;28.83;;;23.50;;
23898;SDS011;20544;50.018;20.010;2022-10-15T01:20:22;28.23;;;23.15;;
23898;SDS011;20544;50.018;20.010;2022-10-15T01:24:10;29.93;;;24.05;;
23898;SDS011;20544;50.018;20.010;2022-10-15T01:27:55;29.00;;;24.68;;
23898;SDS011;20544;50.018;20.010;2022-10-15T01:31:18;31.45;;;24.93;;
23898;SDS011;20544;50.018;20.010;2022-10-15T01:34:39;31.10;;;26.05;;
23898;SDS011;20544;50.018;20.010;2022-10-15T01:38:03;32.33;;;26.43;;
23898;SDS011;20544;50.018;20.010;2022-10-15T01:41:28;37.43;;;27.85;;
23898;SDS011;20544;50.018;20.010;2022-10-15T01:44:49;32.55;;;27.20;;
23898;SDS011;20544;50.018;20.010;2022-10-15T01:48:13;29.18;;;25.13;;
23898;SDS011;20544;50.018;20.010;2022-10-15T01:51:34;32.00;;;26.70;;
23898;SDS011;20544;50.018;20.010;2022-10-15T01:54:53;31.65;;;27.08;;
23898;SDS011;20544;50.018;20.010;2022-10-15T01:58:14;35.68;;;29.20;;
23898;SDS011;20544;50.018;20.010;2022-10-15T02:01:31;33.28;;;28.20;;
23898;SDS011;20544;50.018;20.010;2022-10-15T02:04:47;35.73;;;29.60;;
23898;SDS011;20544;50.018;20.010;2022-10-15T02:08:05;34.43;;;27.75;;
23898;SDS011;20544;50.018;20.010;2022-10-15T02:11:27;37.25;;;28.78;;
23898;SDS011;20544;50.018;20.010;2022-10-15T02:14:50;39.80;;;29.78;;
23898;SDS011;20544;50.018;20.010;2022-10-15T02:18:11;33.38;;;27.93;;
23898;SDS011;20544;50.018;20.010;2022-10-15T02:21:31;36.45;;;28.40;;
23898;SDS011;20544;50.018;20.010;2022-10-15T02:24:54;35.35;;;29.83;;
23898;SDS011;20544;50.018;20.010;2022-10-15T02:28:14;36.58;;;30.08;;
23898;SDS011;20544;50.018;20.010;2022-10-15T02:31:32;36.90;;;30.70;;
23898;SDS011;20544;50.018;20.010;2022-10-15T02:34:52;35.58;;;30.10;;
23898;SDS011;20544;50.018;20.010;2022-10-15T02:38:09;33.43;;;29.65;;
23898;SDS011;20544;50.018;20.010;2022-10-15T02:41:30;39.38;;;30.85;;
23898;SDS011;20544;50.018;20.010;2022-10-15T02:44:50;40.25;;;31.13;;
23898;SDS011;20544;50.018;20.010;2022-10-15T02:48:06;37.85;;;31.50;;
23898;SDS011;20544;50.018;20.010;2022-10-15T02:51:24;37.20;;;30.98;;
23898;SDS011;20544;50.018;20.010;2022-10-15T02:54:43;35.35;;;31.05;;
23898;SDS011;20544;50.018;20.010;2022-10-15T02:58:00;39.28;;;30.60;;
23898;SDS011;20544;50.018;20.010;2022-10-15T03:01:16;42.60;;;30.80;;
23898;SDS011;20544;50.018;20.010;2022-10-15T03:04:33;37.65;;;30.25;;
23898;SDS011;20544;50.018;20.010;2022-10-15T03:07:51;37.13;;;30.08;;
23898;SDS011;20544;50.018;20.010;2022-10-15T03:14:23;38.75;;;31.30;;
23898;SDS011;20544;50.018;20.010;2022-10-15T03:17:39;40.13;;;32.25;;
23898;SDS011;20544;50.018;20.010;2022-10-15T03:20:58;40.17;;;30.07;;
23898;SDS011;20544;50.018;20.010;2022-10-15T03:24:15;37.05;;;30.50;;
23898;SDS011;20544;50.018;20.010;2022-10-15T03:27:32;38.15;;;31.38;;
23898;SDS011;20544;50.018;20.010;2022-10-15T03:30:49;36.13;;;30.25;;
23898;SDS011;20544;50.018;20.010;2022-10-15T03:34:06;39.30;;;30.00;;
23898;SDS011;20544;50.018;20.010;2022-10-15T03:37:23;38.78;;;29.58;;
23898;SDS011;20544;50.018;20.010;2022-10-15T03:40:40;37.23;;;30.40;;
23898;SDS011;20544;50.018;20.010;2022-10-15T03:44:01;39.73;;;31.05;;
23898;SDS011;20544;50.018;20.010;2022-10-15T03:47:20;39.60;;;29.38;;
23898;SDS011;20544;50.018;20.010;2022-10-15T03:50:36;40.25;;;29.75;;
23898;SDS011;20544;50.018;20.010;2022-10-15T03:53:54;40.23;;;29.18;;
23898;SDS011;20544;50.018;20.010;2022-10-15T03:57:12;37.80;;;29.07;;
23898;SDS011;20544;50.018;20.010;2022-10-15T04:00:30;33.98;;;28.93;;
23898;SDS011;20544;50.018;20.010;2022-10-15T04:03:50;35.55;;;27.18;;
23898;SDS011;20544;50.018;20.010;2022-10-15T04:07:07;35.95;;;27.78;;
23898;SDS011;20544;50.018;20.010;2022-10-15T04:10:24;35.30;;;27.50;;
23898;SDS011;20544;50.018;20.010;2022-10-15T04:13:40;36.68;;;28.68;;
23898;SDS011;20544;50.018;20.010;2022-10-15T04:17:00;36.28;;;27.70;;
23898;SDS011;20544;50.018;20.010;2022-10-15T04:20:16;34.40;;;28.05;;
23898;SDS011;20544;50.018;20.010;2022-10-15T04:23:35;35.18;;;28.70;;
23898;SDS011;20544;50.018;20.010;2022-10-15T04:26:56;32.53;;;27.25;;
23898;SDS011;20544;50.018;20.010;2022-10-15T04:30:14;35.55;;;29.15;;
23898;SDS011;20544;50.018;20.010;2022-10-15T04:33:32;27.90;;;23.02;;
23898;SDS011;20544;50.018;20.010;2022-10-15T04:36:49;32.50;;;25.58;;
23898;SDS011;20544;50.018;20.010;2022-10-15T04:40:07;35.00;;;27.45;;
23898;SDS011;20544;50.018;20.010;2022-10-15T04:46:41;31.40;;;24.20;;
23898;SDS011;20544;50.018;20.010;2022-10-15T04:50:14;29.65;;;23.30;;
23898;SDS011;20544;50.018;20.010;2022-10-15T04:53:49;27.50;;;21.45;;
23898;SDS011;20544;50.018;20.010;2022-10-15T04:57:08;26.53;;;19.38;;
23898;SDS011;20544;50.018;20.010;2022-10-15T05:00:24;22.15;;;18.15;;
23898;SDS011;20544;50.018;20.010;2022-10-15T05:03:46;22.60;;;18.13;;
23898;SDS011;20544;50.018;20.010;2022-10-15T05:07:03;20.40;;;17.95;;
23898;SDS011;20544;50.018;20.010;2022-10-15T05:10:20;22.55;;;17.73;;
23898;SDS011;20544;50.018;20.010;2022-10-15T05:13:38;25.25;;;18.55;;
23898;SDS011;20544;50.018;20.010;2022-10-15T05:16:55;20.70;;;17.15;;
23898;SDS011;20544;50.018;20.010;2022-10-15T05:20:13;21.13;;;17.95;;
23898;SDS011;20544;50.018;20.010;2022-10-15T05:23:29;21.73;;;17.50;;
23898;SDS011;20544;50.018;20.010;2022-10-15T05:26:54;25.18;;;17.75;;
23898;SDS011;20544;50.018;20.010;2022-10-15T05:30:12;25.53;;;17.08;;
23898;SDS011;20544;50.018;20.010;2022-10-15T05:33:29;23.75;;;17.08;;
23898;SDS011;20544;50.018;20.010;2022-10-15T05:36:46;19.93;;;16.88;;
23898;SDS011;20544;50.018;20.010;2022-10-15T05:40:03;21.73;;;17.28;;
23898;SDS011;20544;50.018;20.010;2022-10-15T05:43:25;18.88;;;16.00;;
23898;SDS011;20544;50.018;20.010;2022-10-15T05:46:43;20.17;;;17.50;;
23898;SDS011;20544;50.018;20.010;2022-10-15T05:50:00;20.35;;;16.75;;
23898;SDS011;20544;50.018;20.010;2022-10-15T05:53:21;22.55;;;16.68;;
23898;SDS011;20544;50.018;20.010;2022-10-15T05:56:39;19.98;;;16.63;;
23898;SDS011;20544;50.018;20.010;2022-10-15T05:59:55;23.58;;;15.33;;
23898;SDS011;20544;50.018;20.010;2022-10-15T06:03:13;20.33;;;15.53;;
23898;SDS011;20544;50.018;20.010;2022-10-15T06:06:29;20.58;;;16.13;;
23898;SDS011;20544;50.018;20.010;2022-10-15T06:09:45;19.50;;;15.23;;
23898;SDS011;20544;50.018;20.010;2022-10-15T06:13:04;19.60;;;16.20;;
23898;SDS011;20544;50.018;20.010;2022-10-15T06:16:21;22.18;;;17.75;;
23898;SDS011;20544;50.018;20.010;2022-10-15T06:19:37;19.63;;;16.50;;
23898;SDS011;20544;50.018;20.010;2022-10-15T06:22:57;19.25;;;14.58;;
23898;SDS011;20544;50.018;20.010;2022-10-15T06:26:17;18.23;;;14.78;;
23898;SDS011;20544;50.018;20.010;2022-10-15T06:29:33;23.40;;;18.55;;
23898;SDS011;20544;50.018;20.010;2022-10-15T06:32:50;18.03;;;14.45;;
23898;SDS011;20544;50.018;20.010;2022-10-15T06:36:08;17.38;;;13.65;;
23898;SDS011;20544;50.018;20.010;2022-10-15T06:39:24;16.78;;;14.60;;
23898;SDS011;20544;50.018;20.010;2022-10-15T06:42:41;17.25;;;14.50;;
23898;SDS011;20544;50.018;20.010;2022-10-15T06:45:57;19.15;;;14.63;;
23898;SDS011;20544;50.018;20.010;2022-10-15T06:49:14;16.20;;;13.95;;
23898;SDS011;20544;50.018;20.010;2022-10-15T06:52:30;15.93;;;12.43;;
23898;SDS011;20544;50.018;20.010;2022-10-15T06:55:54;14.75;;;13.15;;
23898;SDS011;20544;50.018;20.010;2022-10-15T06:59:15;15.08;;;13.28;;
23898;SDS011;20544;50.018;20.010;2022-10-15T07:02:32;15.60;;;13.48;;
23898;SDS011;20544;50.018;20.010;2022-10-15T07:05:56;19.15;;;14.10;;
23898;SDS011;20544;50.018;20.010;2022-10-15T07:09:17;17.05;;;14.10;;
23898;SDS011;20544;50.018;20.010;2022-10-15T07:12:34;17.33;;;13.00;;
23898;SDS011;20544;50.018;20.010;2022-10-15T07:15:53;16.68;;;14.20;;
23898;SDS011;20544;50.018;20.010;2022-10-15T07:19:10;16.80;;;13.45;;
23898;SDS011;20544;50.018;20.010;2022-10-15T07:22:27;13.38;;;11.88;;
23898;SDS011;20544;50.018;20.010;2022-10-15T07:25:43;17.63;;;14.88;;
23898;SDS011;20544;50.018;20.010;2022-10-15T07:28:59;17.55;;;15.18;;
23898;SDS011;20544;50.018;20.010;2022-10-15T07:32:16;17.70;;;15.08;;
23898;SDS011;20544;50.018;20.010;2022-10-15T07:35:33;16.33;;;13.70;;
23898;SDS011;20544;50.018;20.010;2022-10-15T07:38:50;16.15;;;13.83;;
23898;SDS011;20544;50.018;20.010;2022-10-15T07:42:06;16.30;;;13.25;;
23898;SDS011;20544;50.018;20.010;2022-10-15T07:45:22;16.28;;;13.85;;
23898;SDS011;20544;50.018;20.010;2022-10-15T07:51:55;31.90;;;26.58;;
23898;SDS011;20544;50.018;20.010;2022-10-15T07:55:13;18.50;;;15.03;;
23898;SDS011;20544;50.018;20.010;2022-10-15T07:58:30;16.90;;;13.58;;
23898;SDS011;20544;50.018;20.010;2022-10-15T08:01:46;15.88;;;13.00;;
23898;SDS011;20544;50.018;20.010;2022-10-15T08:05:02;15.90;;;14.15;;
23898;SDS011;20544;50.018;20.010;2022-10-15T08:08:20;15.95;;;13.20;;
23898;SDS011;20544;50.018;20.010;2022-10-15T08:11:39;15.73;;;13.23;;
23898;SDS011;20544;50.018;20.010;2022-10-15T08:14:57;14.78;;;13.28;;
23898;SDS011;20544;50.018;20.010;2022-10-15T08:18:13;14.65;;;13.05;;
23898;SDS011;20544;50.018;20.010;2022-10-15T08:21:29;17.05;;;13.53;;
23898;SDS011;20544;50.018;20.010;2022-10-15T08:24:47;14.73;;;12.48;;
23898;SDS011;20544;50.018;20.010;2022-10-15T08:28:03;16.45;;;12.80;;
23898;SDS011;20544;50.018;20.010;2022-10-15T08:31:19;14.78;;;13.20;;
23898;SDS011;20544;50.018;20.010;2022-10-15T08:34:37;13.48;;;12.10;;
23898;SDS011;20544;50.018;20.010;2022-10-15T08:37:53;13.05;;;11.75;;
23898;SDS011;20544;50.018;20.010;2022-10-15T08:41:16;13.10;;;11.70;;
23898;SDS011;20544;50.018;20.010;2022-10-15T08:44:39;14.03;;;11.60;;
23898;SDS011;20544;50.018;20.010;2022-10-15T08:48:00;15.00;;;11.85;;
23898;SDS011;20544;50.018;20.010;2022-10-15T08:51:23;13.85;;;11.48;;
23898;SDS011;20544;50.018;20.010;2022-10-15T08:54:44;11.85;;;10.63;;
23898;SDS011;20544;50.018;20.010;2022-10-15T08:58:01;35.90;;;26.70;;
23898;SDS011;20544;50.018;20.010;2022-10-15T09:01:25;20.43;;;14.43;;
23898;SDS011;20544;50.018;20.010;2022-10-15T09:04:48;12.43;;;10.93;;
23898;SDS011;20544;50.018;20.010;2022-10-15T09:08:13;12.10;;;10.73;;
23898;SDS011;20544;50.018;20.010;2022-10-15T09:11:38;13.70;;;11.23;;
23898;SDS011;20544;50.018;20.010;2022-10-15T09:15:01;10.80;;;9.53;;
23898;SDS011;20544;50.018;20.010;2022-10-15T09:18:22;13.90;;;9.83;;
23898;SDS011;20544;50.018;20.010;2022-10-15T09:21:42;11.15;;;9.68;;
23898;SDS011;20544;50.018;20.010;2022-10-15T09:25:06;11.15;;;9.88;;
23898;SDS011;20544;50.018;20.010;2022-10-15T09:28:37;13.35;;;10.43;;
23898;SDS011;20544;50.018;20.010;2022-10-15T09:32:02;13.20;;;9.38;;
23898;SDS011;20544;50.018;20.010;2022-10-15T09:35:25;11.38;;;9.38;;
23898;SDS011;20544;50.018;20.010;2022-10-15T09:38:48;11.75;;;9.85;;
23898;SDS011;20544;50.018;20.010;2022-10-15T09:42:18;11.30;;;9.58;;
23898;SDS011;20544;50.018;20.010;2022-10-15T09:45:40;35.00;;;16.50;;
23898;SDS011;20544;50.018;20.010;2022-10-15T09:49:00;20.00;;;17.20;;
23898;SDS011;20544;50.018;20.010;2022-10-15T09:52:28;12.83;;;9.90;;
23898;SDS011;20544;50.018;20.010;2022-10-15T09:55:55;10.07;;;8.53;;
23898;SDS011;20544;50.018;20.010;2022-10-15T09:59:15;11.95;;;9.63;;
23898;SDS011;20544;50.018;20.010;2022-10-15T10:02:38;11.78;;;9.68;;
23898;SDS011;20544;50.018;20.010;2022-10-15T10:06:00;11.58;;;9.13;;
23898;SDS011;20544;50.018;20.010;2022-10-15T10:09:22;10.35;;;8.38;;
23898;SDS011;20544;50.018;20.010;2022-10-15T10:12:42;10.45;;;9.35;;
23898;SDS011;20544;50.018;20.010;2022-10-15T10:16:03;12.68;;;9.00;;
23898;SDS011;20544;50.018;20.010;2022-10-15T10:19:22;10.48;;;8.73;;
23898;SDS011;20544;50.018;20.010;2022-10-15T10:22:42;11.98;;;8.80;;
23898;SDS011;20544;50.018;20.010;2022-10-15T10:26:03;9.80;;;8.80;;
23898;SDS011;20544;50.018;20.010;2022-10-15T10:29:21;10.90;;;8.50;;
23898;SDS011;20544;50.018;20.010;2022-10-15T10:32:40;37.23;;;30.85;;
23898;SDS011;20544;50.018;20.010;2022-10-15T10:36:00;11.83;;;10.10;;
23898;SDS011;20544;50.018;20.010;2022-10-15T10:39:22;9.45;;;8.45;;
23898;SDS011;20544;50.018;20.010;2022-10-15T10:42:42;13.35;;;8.70;;
23898;SDS011;20544;50.018;20.010;2022-10-15T10:45:59;9.98;;;8.40;;
23898;SDS011;20544;50.018;20.010;2022-10-15T10:49:30;8.33;;;7.53;;
23898;SDS011;20544;50.018;20.010;2022-10-15T10:52:50;8.78;;;7.40;;
23898;SDS011;20544;50.018;20.010;2022-10-15T10:56:26;10.20;;;6.95;;
23898;SDS011;20544;50.018;20.010;2022-10-15T10:59:47;8.40;;;7.50;;
23898;SDS011;20544;50.018;20.010;2022-10-15T11:03:08;8.95;;;7.03;;
23898;SDS011;20544;50.018;20.010;2022-10-15T11:10:10;8.85;;;7.80;;
23898;SDS011;20544;50.018;20.010;2022-10-15T11:13:40;8.03;;;7.20;;
23898;SDS011;20544;50.018;20.010;2022-10-15T11:17:06;9.68;;;7.60;;
23898;SDS011;20544;50.018;20.010;2022-10-15T11:20:28;7.63;;;6.83;;
23898;SDS011;20544;50.018;20.010;2022-10-15T11:23:56;10.33;;;6.88;;
23898;SDS011;20544;50.018;20.010;2022-10-15T11:27:42;8.43;;;6.90;;
23898;SDS011;20544;50.018;20.010;2022-10-15T11:31:21;8.20;;;7.30;;
23898;SDS011;20544;50.018;20.010;2022-10-15T11:34:45;7.85;;;6.90;;
23898;SDS011;20544;50.018;20.010;2022-10-15T11:38:14;9.48;;;7.40;;
23898;SDS011;20544;50.018;20.010;2022-10-15T11:41:38;8.05;;;7.25;;
23898;SDS011;20544;50.018;20.010;2022-10-15T11:45:02;12.58;;;7.48;;
23898;SDS011;20544;50.018;20.010;2022-10-15T11:48:52;10.15;;;7.38;;
23898;SDS011;20544;50.018;20.010;2022-10-15T11:52:24;11.30;;;8.00;;
23898;SDS011;20544;50.018;20.010;2022-10-15T11:56:00;9.80;;;8.48;;
23898;SDS011;20544;50.018;20.010;2022-10-15T11:59:30;11.33;;;8.33;;
23898;SDS011;20544;50.018;20.010;2022-10-15T12:02:48;8.83;;;7.73;;
23898;SDS011;20544;50.018;20.010;2022-10-15T12:06:09;10.00;;;7.60;;
23898;SDS011;20544;50.018;20.010;2022-10-15T12:09:29;9.68;;;7.85;;
23898;SDS011;20544;50.018;20.010;2022-10-15T12:12:52;12.20;;;7.98;;
23898;SDS011;20544;50.018;20.010;2022-10-15T12:16:14;10.13;;;8.20;;
23898;SDS011;20544;50.018;20.010;2022-10-15T12:19:37;8.50;;;7.33;;
23898;SDS011;20544;50.018;20.010;2022-10-15T12:22:57;9.30;;;7.78;;
23898;SDS011;20544;50.018;20.010;2022-10-15T12:26:26;9.15;;;7.40;;
23898;SDS011;20544;50.018;20.010;2022-10-15T12:29:45;10.25;;;7.83;;
23898;SDS011;20544;50.018;20.010;2022-10-15T12:33:22;9.13;;;7.85;;
23898;SDS011;20544;50.018;20.010;2022-10-15T12:36:45;11.58;;;7.73;;
23898;SDS011;20544;50.018;20.010;2022-10-15T12:40:22;19.68;;;15.38;;
23898;SDS011;20544;50.018;20.010;2022-10-15T12:43:40;8.57;;;7.07;;
23898;SDS011;20544;50.018;20.010;2022-10-15T12:47:01;8.28;;;6.70;;
23898;SDS011;20544;50.018;20.010;2022-10-15T12:50:22;9.03;;;6.30;;
23898;SDS011;20544;50.018;20.010;2022-10-15T12:53:42;8.93;;;6.58;;
23898;SDS011;20544;50.018;20.010;2022-10-15T12:57:02;9.30;;;5.95;;
23898;SDS011;20544;50.018;20.010;2022-10-15T13:00:49;9.85;;;6.55;;
23898;SDS011;20544;50.018;20.010;2022-10-15T13:04:06;7.15;;;6.45;;
23898;SDS011;20544;50.018;20.010;2022-10-15T13:07:25;6.73;;;5.85;;
23898;SDS011;20544;50.018;20.010;2022-10-15T13:10:45;7.33;;;5.68;;
23898;SDS011;20544;50.018;20.010;2022-10-15T13:14:11;7.15;;;5.60;;
23898;SDS011;20544;50.018;20.010;2022-10-15T13:17:36;6.63;;;5.65;;
23898;SDS011;20544;50.018;20.010;2022-10-15T13:20:56;6.95;;;5.60;;
23898;SDS011;20544;50.018;20.010;2022-10-15T13:24:14;8.10;;;5.70;;
23898;SDS011;20544;50.018;20.010;2022-10-15T13:27:35;6.48;;;5.80;;
23898;SDS011;20544;50.018;20.010;2022-10-15T13:30:52;6.10;;;5.18;;
23898;SDS011;20544;50.018;20.010;2022-10-15T13:34:10;6.50;;;5.23;;
23898;SDS011;20544;50.018;20.010;2022-10-15T13:37:39;12.78;;;10.03;;
23898;SDS011;20544;50.018;20.010;2022-10-15T13:40:56;11.65;;;7.30;;
23898;SDS011;20544;50.018;20.010;2022-10-15T13:44:20;6.80;;;5.43;;
23898;SDS011;20544;50.018;20.010;2022-10-15T13:47:40;7.98;;;5.93;;
23898;SDS011;20544;50.018;20.010;2022-10-15T13:51:00;7.28;;;5.08;;
23898;SDS011;20544;50.018;20.010;2022-10-15T13:54:20;8.15;;;5.85;;
23898;SDS011;20544;50.018;20.010;2022-10-15T13:57:42;7.18;;;5.68;;
23898;SDS011;20544;50.018;20.010;2022-10-15T14:00:59;6.75;;;5.53;;
23898;SDS011;20544;50.018;20.010;2022-10-15T14:04:20;8.98;;;6.30;;
23898;SDS011;20544;50.018;20.010;2022-10-15T14:07:37;7.20;;;5.50;;
23898;SDS011;20544;50.018;20.010;2022-10-15T14:10:53;8.13;;;5.33;;
23898;SDS011;20544;50.018;20.010;2022-10-15T14:17:54;5.93;;;5.03;;
23898;SDS011;20544;50.018;20.010;2022-10-15T14:21:11;8.48;;;5.30;;
23898;SDS011;20544;50.018;20.010;2022-10-15T14:24:34;10.35;;;5.60;;
23898;SDS011;20544;50.018;20.010;2022-10-15T14:27:52;6.90;;;5.50;;
23898;SDS011;20544;50.018;20.010;2022-10-15T14:31:08;7.25;;;5.10;;
23898;SDS011;20544;50.018;20.010;2022-10-15T14:34:37;8.53;;;5.53;;
23898;SDS011;20544;50.018;20.010;2022-10-15T14:38:01;78.93;;;64.73;;
23898;SDS011;20544;50.018;20.010;2022-10-15T14:41:28;17.13;;;12.85;;
23898;SDS011;20544;50.018;20.010;2022-10-15T14:44:46;9.48;;;7.53;;
23898;SDS011;20544;50.018;20.010;2022-10-15T14:48:08;8.85;;;6.15;;
23898;SDS011;20544;50.018;20.010;2022-10-15T14:51:30;8.38;;;5.48;;
23898;SDS011;20544;50.018;20.010;2022-10-15T14:54:49;11.03;;;6.13;;
23898;SDS011;20544;50.018;20.010;2022-10-15T14:58:15;7.55;;;5.70;;
23898;SDS011;20544;50.018;20.010;2022-10-15T15:01:32;8.13;;;6.08;;
23898;SDS011;20544;50.018;20.010;2022-10-15T15:04:52;9.58;;;5.75;;
23898;SDS011;20544;50.018;20.010;2022-10-15T15:08:27;9.53;;;6.70;;
23898;SDS011;20544;50.018;20.010;2022-10-15T15:11:43;11.90;;;6.18;;
23898;SDS011;20544;50.018;20.010;2022-10-15T15:15:16;6.85;;;5.73;;
23898;SDS011;20544;50.018;20.010;2022-10-15T15:18:35;7.50;;;6.35;;
23898;SDS011;20544;50.018;20.010;2022-10-15T15:21:54;27.20;;;20.85;;
23898;SDS011;20544;50.018;20.010;2022-10-15T15:25:14;17.60;;;10.85;;
23898;SDS011;20544;50.018;20.010;2022-10-15T15:28:35;11.48;;;7.95;;
23898;SDS011;20544;50.018;20.010;2022-10-15T15:31:51;8.55;;;7.10;;
23898;SDS011;20544;50.018;20.010;2022-10-15T15:35:11;12.00;;;7.20;;
23898;SDS011;20544;50.018;20.010;2022-10-15T15:38:37;9.85;;;6.80;;
23898;SDS011;20544;50.018;20.010;2022-10-15T15:41:57;8.70;;;7.05;;
23898;SDS011;20544;50.018;20.010;2022-10-15T15:45:20;8.15;;;6.85;;
23898;SDS011;20544;50.018;20.010;2022-10-15T15:48:38;9.35;;;7.03;;
23898;SDS011;20544;50.018;20.010;2022-10-15T15:51:55;11.38;;;7.40;;
23898;SDS011;20544;50.018;20.010;2022-10-15T15:55:12;9.38;;;7.08;;
23898;SDS011;20544;50.018;20.010;2022-10-15T15:58:31;10.98;;;7.50;;
23898;SDS011;20544;50.018;20.010;2022-10-15T16:01:47;9.18;;;7.23;;
23898;SDS011;20544;50.018;20.010;2022-10-15T16:05:05;11.20;;;7.58;;
23898;SDS011;20544;50.018;20.010;2022-10-15T16:08:24;10.18;;;8.08;;
23898;SDS011;20544;50.018;20.010;2022-10-15T16:11:43;12.23;;;8.20;;
23898;SDS011;20544;50.018;20.010;2022-10-15T16:14:59;12.00;;;8.30;;
23898;SDS011;20544;50.018;20.010;2022-10-15T16:18:18;11.93;;;8.80;;
23898;SDS011;20544;50.018;20.010;2022-10-15T16:21:35;12.75;;;9.10;;
23898;SDS011;20544;50.018;20.010;2022-10-15T16:24:53;11.73;;;9.20;;
23898;SDS011;20544;50.018;20.010;2022-10-15T16:28:10;15.20;;;9.65;;
23898;SDS011;20544;50.018;20.010;2022-10-15T16:31:27;12.13;;;8.90;;
23898;SDS011;20544;50.018;20.010;2022-10-15T16:34:43;14.63;;;8.80;;
23898;SDS011;20544;50.018;20.010;2022-10-15T16:37:59;12.90;;;9.05;;
23898;SDS011;20544;50.018;20.010;2022-10-15T16:41:20;14.00;;;8.45;;
23898;SDS011;20544;50.018;20.010;2022-10-15T16:44:37;10.45;;;6.85;;
23898;SDS011;20544;50.018;20.010;2022-10-15T16:47:55;11.05;;;7.18;;
23898;SDS011;20544;50.018;20.010;2022-10-15T16:51:14;7.90;;;6.58;;
23898;SDS011;20544;50.018;20.010;2022-10-15T16:54:31;8.13;;;6.78;;
23898;SDS011;20544;50.018;20.010;2022-10-15T16:57:48;9.30;;;6.88;;
23898;SDS011;20544;50.018;20.010;2022-10-15T17:01:04;10.45;;;6.75;;
23898;SDS011;20544;50.018;20.010;2022-10-15T17:04:23;8.58;;;6.93;;
23898;SDS011;20544;50.018;20.010;2022-10-15T17:07:40;8.60;;;6.85;;
23898;SDS011;20544;50.018;20.010;2022-10-15T17:10:56;10.45;;;6.58;;
23898;SDS011;20544;50.018;20.010;2022-10-15T17:14:13;9.85;;;7.08;;
23898;SDS011;20544;50.018;20.010;2022-10-15T17:17:30;9.78;;;7.23;;
23898;SDS011;20544;50.018;20.010;2022-10-15T17:20:51;26.75;;;22.25;;
23898;SDS011;20544;50.018;20.010;2022-10-15T17:24:09;9.30;;;7.00;;
23898;SDS011;20544;50.018;20.010;2022-10-15T17:27:27;10.10;;;6.60;;
23898;SDS011;20544;50.018;20.010;2022-10-15T17:30:44;9.98;;;7.38;;
23898;SDS011;20544;50.018;20.010;2022-10-15T17:34:01;8.80;;;7.23;;
23898;SDS011;20544;50.018;20.010;2022-10-15T17:37:20;8.23;;;6.28;;
23898;SDS011;20544;50.018;20.010;2022-10-15T17:40:39;10.35;;;7.23;;
23898;SDS011;20544;50.018;20.010;2022-10-15T17:43:55;9.48;;;6.55;;
23898;SDS011;20544;50.018;20.010;2022-10-15T17:47:12;10.28;;;6.33;;
23898;SDS011;20544;50.018;20.010;2022-10-15T17:50:29;7.80;;;7.00;;
23898;SDS011;20544;50.018;20.010;2022-10-15T17:53:49;9.50;;;7.05;;
23898;SDS011;20544;50.018;20.010;2022-10-15T17:57:08;8.55;;;6.58;;
23898;SDS011;20544;50.018;20.010;2022-10-15T18:00:25;9.60;;;7.18;;
23898;SDS011;20544;50.018;20.010;2022-10-15T18:03:42;8.75;;;7.15;;
23898;SDS011;20544;50.018;20.010;2022-10-15T18:07:01;8.40;;;6.80;;
23898;SDS011;20544;50.018;20.010;2022-10-15T18:10:20;8.23;;;6.73;;
23898;SDS011;20544;50.018;20.010;2022-10-15T18:13:37;9.10;;;6.75;;
23898;SDS011;20544;50.018;20.010;2022-10-15T18:16:54;10.28;;;7.00;;
23898;SDS011;20544;50.018;20.010;2022-10-15T18:20:10;8.98;;;6.60;;
23898;SDS011;20544;50.018;20.010;2022-10-15T18:23:27;9.55;;;6.85;;
23898;SDS011;20544;50.018;20.010;2022-10-15T18:26:51;8.58;;;7.40;;
23898;SDS011;20544;50.018;20.010;2022-10-15T18:30:08;11.90;;;7.58;;
23898;SDS011;20544;50.018;20.010;2022-10-15T18:33:26;10.47;;;7.47;;
23898;SDS011;20544;50.018;20.010;2022-10-15T18:36:44;9.35;;;7.43;;
23898;SDS011;20544;50.018;20.010;2022-10-15T18:40:01;8.25;;;6.28;;
23898;SDS011;20544;50.018;20.010;2022-10-15T18:43:20;9.95;;;7.65;;
23898;SDS011;20544;50.018;20.010;2022-10-15T18:46:36;8.73;;;7.30;;
23898;SDS011;20544;50.018;20.010;2022-10-15T18:49:53;10.23;;;7.63;;
23898;SDS011;20544;50.018;20.010;2022-10-15T18:53:12;10.93;;;7.18;;
23898;SDS011;20544;50.018;20.010;2022-10-15T18:56:33;10.60;;;7.55;;
23898;SDS011;20544;50.018;20.010;2022-10-15T18:59:50;10.13;;;7.98;;
23898;SDS011;20544;50.018;20.010;2022-10-15T19:03:06;8.73;;;7.35;;
23898;SDS011;20544;50.018;20.010;2022-10-15T19:06:23;9.13;;;7.60;;
23898;SDS011;20544;50.018;20.010;2022-10-15T19:09:42;9.28;;;7.45;;
23898;SDS011;20544;50.018;20.010;2022-10-15T19:13:00;8.80;;;6.93;;
23898;SDS011;20544;50.018;20.010;2022-10-15T19:16:19;9.38;;;7.25;;
23898;SDS011;20544;50.018;20.010;2022-10-15T19:19:37;9.80;;;7.15;;
23898;SDS011;20544;50.018;20.010;2022-10-15T19:22:59;8.93;;;6.68;;
23898;SDS011;20544;50.018;20.010;2022-10-15T19:26:15;9.15;;;7.50;;
23898;SDS011;20544;50.018;20.010;2022-10-15T19:29:33;10.85;;;7.45;;
23898;SDS011;20544;50.018;20.010;2022-10-15T19:32:50;10.23;;;7.65;;
23898;SDS011;20544;50.018;20.010;2022-10-15T19:36:06;9.43;;;7.20;;
23898;SDS011;20544;50.018;20.010;2022-10-15T19:39:25;10.48;;;7.78;;
23898;SDS011;20544;50.018;20.010;2022-10-15T19:42:43;11.80;;;7.38;;